Pagrindinis puslapis
METAR-TAF:

METAR-TAF

Oro uostai :

Reštas, Iranas

platuma: 37-12N, ilguma: 049-38E, Aukštis: -7 m

Dabartinis oras

Ataskaita buvo paskelbta 42 minutes, ne 18:00 UTC
Vėjas 6 kt iš Pietvakarių
Temperatūra 5°C
Drėgmė 100%
Slėgis 1031 hPa
Matomumas: 6000 m
Su prošvaistėmis ne aukštis 2500 ft
Apsiniaukę ne aukštis 8000 ft

METAR: OIGG 161800Z 23006KT 6000 BKN025 OVC080 05/05 Q1031

Laikas: 22:12 (18:42 UTC)


TAF: trūkstamas

Orai ataskaitas ir orų prognozės (METAR, TAF).

turimą stotys yra geltonos ir raudonos taškus žemėlapyje.

Perkelti pele per norėdami pamatyti stoties vardą.

Tada spustelėkite, norėdami matyti oro stebėjimo ir prognozės.

Norėdami pakeisti žemėlapį: spustelėkite ant žalios mygtukų su juodo kryžiaus žemyn,; žalią mygtuką su brūkšneliu, jei norite nutolinti; arba žalių rodyklių gretimoms žemėlapius.


METAR-TAF: